createdAt,value
2023-05-11T00:00:38.335Z,22.25
2023-05-11T00:03:05.158Z,22.27
2023-05-11T00:05:31.774Z,22.22
2023-05-11T00:07:58.391Z,22.29
2023-05-11T00:10:24.924Z,22.29
2023-05-11T00:12:51.505Z,22.29
2023-05-11T00:15:18.040Z,22.29
2023-05-11T00:17:45.347Z,22.27
2023-05-11T00:20:11.989Z,22.26
2023-05-11T00:22:39.332Z,22.27
2023-05-11T00:25:06.772Z,22.27
2023-05-11T00:27:33.548Z,22.24
2023-05-11T00:30:00.384Z,22.26
2023-05-11T00:32:26.990Z,22.21
2023-05-11T00:34:53.486Z,22.22
2023-05-11T00:37:20.142Z,22.24
2023-05-11T00:39:46.686Z,22.13
2023-05-11T00:42:13.204Z,22.23
2023-05-11T00:44:39.803Z,22.22
2023-05-11T00:47:07.220Z,22.20
2023-05-11T00:49:33.904Z,22.21
2023-05-11T00:52:03.089Z,22.19
2023-05-11T00:54:30.888Z,22.20
2023-05-11T00:56:57.544Z,22.19
2023-05-11T00:59:24.213Z,22.19
2023-05-11T01:01:51.178Z,22.09
2023-05-11T01:04:17.849Z,22.18
2023-05-11T01:07:06.449Z,22.17
2023-05-11T01:09:44.832Z,22.17
2023-05-11T01:12:44.093Z,22.15
2023-05-11T01:15:14.372Z,22.09
2023-05-11T01:18:26.533Z,22.15
2023-05-11T01:20:58.461Z,22.12
2023-05-11T01:24:03.927Z,22.13
2023-05-11T01:26:47.125Z,22.11
2023-05-11T01:29:49.243Z,22.13
2023-05-11T01:32:20.404Z,22.10
2023-05-11T01:34:48.855Z,22.11
2023-05-11T01:37:22.938Z,22.10
2023-05-11T01:39:54.359Z,22.12
2023-05-11T01:42:26.281Z,22.03
2023-05-11T01:44:55.317Z,22.11
2023-05-11T01:47:25.149Z,21.92
2023-05-11T01:49:54.192Z,22.00
2023-05-11T01:52:23.540Z,22.11
2023-05-11T01:54:52.849Z,22.05
2023-05-11T01:57:21.302Z,22.10
2023-05-11T01:59:50.215Z,22.04
2023-05-11T02:02:18.692Z,22.08
2023-05-11T02:04:46.565Z,22.01
2023-05-11T02:07:14.907Z,22.09
2023-05-11T02:09:42.818Z,22.03
2023-05-11T02:12:11.386Z,22.04
2023-05-11T02:14:40.369Z,22.08
2023-05-11T02:17:08.783Z,22.08
2023-05-11T02:19:37.635Z,22.08
2023-05-11T02:22:06.008Z,22.06
2023-05-11T02:24:33.850Z,22.05
2023-05-11T02:27:02.123Z,22.06
2023-05-11T02:29:29.125Z,22.05
2023-05-11T02:32:09.732Z,22.03
2023-05-11T02:34:43.333Z,22.05
2023-05-11T02:37:18.490Z,22.03
2023-05-11T02:39:48.360Z,22.04
2023-05-11T02:42:20.966Z,22.02
2023-05-11T02:45:04.944Z,22.02
2023-05-11T02:47:39.438Z,22.01
2023-05-11T02:50:09.028Z,22.01
2023-05-11T02:52:43.172Z,22.01
2023-05-11T02:55:11.904Z,22.00
2023-05-11T02:57:39.004Z,21.99
2023-05-11T03:00:10.349Z,21.94
2023-05-11T03:02:37.117Z,21.96
2023-05-11T03:05:05.171Z,21.99
2023-05-11T03:07:33.312Z,21.99
2023-05-11T03:10:00.843Z,21.87
2023-05-11T03:12:33.926Z,21.98
2023-05-11T03:15:04.944Z,21.97
2023-05-11T03:17:35.222Z,21.95
2023-05-11T03:20:04.117Z,21.93
2023-05-11T03:22:31.724Z,21.91
2023-05-11T03:24:59.143Z,21.96
2023-05-11T03:27:27.585Z,21.97
2023-05-11T03:29:56.871Z,21.96
2023-05-11T03:32:24.296Z,21.95
2023-05-11T03:34:52.182Z,21.96
2023-05-11T03:37:19.527Z,21.86
2023-05-11T03:39:48.296Z,21.93
2023-05-11T03:42:15.584Z,21.88
2023-05-11T03:44:46.176Z,21.95
2023-05-11T03:47:14.698Z,21.91
2023-05-11T03:49:42.420Z,21.96
2023-05-11T03:52:10.684Z,21.92
2023-05-11T03:54:37.792Z,21.94
2023-05-11T03:57:04.643Z,21.95
2023-05-11T03:59:31.714Z,21.92
2023-05-11T04:02:01.207Z,21.91
2023-05-11T04:04:30.625Z,21.96
2023-05-11T04:06:59.356Z,21.97
2023-05-11T04:09:26.253Z,21.96
2023-05-11T04:11:53.115Z,21.96
2023-05-11T04:14:20.676Z,21.96
2023-05-11T04:16:47.974Z,21.99
2023-05-11T04:19:15.497Z,21.74
2023-05-11T04:21:42.189Z,22.02
2023-05-11T04:24:09.014Z,22.03
2023-05-11T04:26:35.573Z,21.99
2023-05-11T04:29:03.737Z,22.06
2023-05-11T04:31:30.593Z,22.07
2023-05-11T04:33:57.749Z,22.09
2023-05-11T04:36:24.958Z,22.09
2023-05-11T04:38:53.568Z,22.00
2023-05-11T04:41:20.772Z,22.09
2023-05-11T04:43:48.177Z,22.10
2023-05-11T04:46:15.342Z,22.12
2023-05-11T04:48:42.355Z,22.13
2023-05-11T04:51:09.969Z,22.07
2023-05-11T04:53:42.417Z,22.14
2023-05-11T04:56:09.451Z,22.14
2023-05-11T04:58:36.020Z,22.15
2023-05-11T05:01:05.956Z,22.16
2023-05-11T05:03:32.625Z,22.16
2023-05-11T05:05:59.127Z,22.04
2023-05-11T05:08:25.866Z,22.18
2023-05-11T05:10:52.467Z,22.04
2023-05-11T05:13:19.162Z,22.19
2023-05-11T05:15:45.993Z,22.18
2023-05-11T05:18:12.756Z,22.19
2023-05-11T05:20:39.695Z,22.19
2023-05-11T05:23:06.451Z,22.10
2023-05-11T05:25:33.990Z,22.20
2023-05-11T05:28:00.813Z,22.20
2023-05-11T05:30:27.870Z,22.21
2023-05-11T05:32:55.179Z,22.21
2023-05-11T05:35:22.296Z,22.20
2023-05-11T05:37:49.348Z,22.21
2023-05-11T05:40:16.857Z,22.22
2023-05-11T05:42:50.283Z,22.22
2023-05-11T05:45:20.800Z,22.15
2023-05-11T05:47:49.051Z,22.17
2023-05-11T05:50:16.290Z,22.23
2023-05-11T05:52:43.654Z,22.23
2023-05-11T05:55:11.643Z,22.23
2023-05-11T05:57:39.437Z,22.16
2023-05-11T06:00:09.618Z,21.99
2023-05-11T06:02:42.376Z,22.25
2023-05-11T06:05:17.695Z,22.22
2023-05-11T06:07:51.525Z,22.27
2023-05-11T06:10:25.101Z,22.29
2023-05-11T06:12:51.669Z,22.18
2023-05-11T06:15:18.398Z,22.21
2023-05-11T06:17:50.003Z,22.28
2023-05-11T06:20:17.479Z,22.31
2023-05-11T06:22:44.108Z,22.31
2023-05-11T06:25:11.624Z,22.31
2023-05-11T06:27:39.601Z,22.31
2023-05-11T06:30:07.465Z,22.29
2023-05-11T06:32:36.359Z,22.31
2023-05-11T06:35:03.572Z,22.18
2023-05-11T06:37:30.683Z,22.02
2023-05-11T06:39:58.960Z,21.84
2023-05-11T06:42:26.886Z,21.69
2023-05-11T06:45:04.389Z,21.56
2023-05-11T06:47:30.969Z,21.55
2023-05-11T06:49:58.198Z,21.33
2023-05-11T06:52:24.831Z,21.27
2023-05-11T06:54:51.958Z,21.29
2023-05-11T06:57:19.262Z,21.30
2023-05-11T07:02:09.640Z,21.49
2023-05-11T07:04:37.178Z,21.50
2023-05-11T07:07:04.037Z,21.50
2023-05-11T07:09:30.638Z,21.42
2023-05-11T07:11:57.773Z,21.50
2023-05-11T07:14:24.400Z,21.49
2023-05-11T07:16:53.098Z,21.51
2023-05-11T07:19:19.709Z,21.52
2023-05-11T07:21:46.348Z,21.44
2023-05-11T07:24:13.156Z,21.44
2023-05-11T07:26:39.669Z,21.39
2023-05-11T07:29:06.415Z,21.41
2023-05-11T07:31:35.489Z,21.17
2023-05-11T07:34:02.795Z,21.34
2023-05-11T07:36:29.932Z,21.23
2023-05-11T07:38:57.910Z,21.33
2023-05-11T07:41:26.815Z,21.26
2023-05-11T07:43:56.793Z,21.30
2023-05-11T07:46:23.404Z,21.14
2023-05-11T07:48:57.397Z,21.39
2023-05-11T07:51:30.942Z,21.40
2023-05-11T07:53:57.541Z,21.39
2023-05-11T07:56:24.323Z,21.40
2023-05-11T07:58:50.953Z,21.38
2023-05-11T08:01:17.586Z,21.49
2023-05-11T08:03:44.399Z,21.51
2023-05-11T08:06:12.187Z,21.58
2023-05-11T08:08:39.285Z,21.62
2023-05-11T08:11:06.090Z,21.50
2023-05-11T08:13:32.914Z,21.70
2023-05-11T08:18:18.307Z,21.68
2023-05-11T08:20:45.043Z,21.84
2023-05-11T08:23:17.067Z,21.86
2023-05-11T08:25:51.980Z,21.89
2023-05-11T08:28:22.233Z,21.93
2023-05-11T08:30:59.434Z,21.97
2023-05-11T08:33:37.437Z,22.00
2023-05-11T08:36:06.961Z,22.02
2023-05-11T08:38:35.169Z,21.97
2023-05-11T08:41:02.660Z,21.96
2023-05-11T08:43:29.502Z,22.12
2023-05-11T08:46:01.101Z,22.09
2023-05-11T08:48:29.123Z,22.15
2023-05-11T08:50:56.265Z,22.17
2023-05-11T08:53:23.286Z,22.20
2023-05-11T08:55:51.542Z,22.13
2023-05-11T08:58:22.104Z,22.24
2023-05-11T09:00:49.661Z,22.25
2023-05-11T09:03:17.765Z,22.27
2023-05-11T09:05:46.963Z,22.29
2023-05-11T09:08:15.923Z,22.31
2023-05-11T09:10:45.714Z,22.33
2023-05-11T09:13:12.727Z,22.25
2023-05-11T09:15:39.371Z,22.37
2023-05-11T09:18:09.000Z,22.39
2023-05-11T09:20:35.723Z,22.41
2023-05-11T09:23:05.564Z,22.42
2023-05-11T09:25:42.729Z,22.45
2023-05-11T09:31:37.583Z,22.49
2023-05-11T09:34:21.452Z,22.52
2023-05-11T09:36:54.047Z,22.51
2023-05-11T09:39:53.202Z,22.57
2023-05-11T09:42:30.173Z,22.58
2023-05-11T09:45:06.144Z,22.61
2023-05-11T09:47:52.920Z,22.62
2023-05-11T09:50:26.427Z,22.64
2023-05-11T09:52:53.412Z,22.65
2023-05-11T09:55:20.423Z,22.67
2023-05-11T09:57:55.039Z,22.69
2023-05-11T10:00:22.053Z,22.71
2023-05-11T10:03:00.974Z,22.72
2023-05-11T10:05:27.892Z,22.74
2023-05-11T10:08:05.556Z,22.76
2023-05-11T10:10:33.978Z,22.77
2023-05-11T10:13:05.520Z,22.78
2023-05-11T10:15:35.235Z,22.81
2023-05-11T10:18:02.290Z,22.83
2023-05-11T10:20:29.095Z,22.84
2023-05-11T10:22:56.119Z,22.85
2023-05-11T10:25:23.634Z,22.87
2023-05-11T10:27:51.638Z,22.88
2023-05-11T10:30:18.928Z,22.89
2023-05-11T10:32:47.210Z,22.88
2023-05-11T10:35:14.395Z,22.92
2023-05-11T10:37:45.699Z,22.93
2023-05-11T10:40:13.285Z,22.94
2023-05-11T10:42:43.516Z,22.96
2023-05-11T10:45:22.045Z,22.96
2023-05-11T10:47:56.315Z,22.97
2023-05-11T10:50:43.126Z,22.99
2023-05-11T10:53:19.112Z,22.98
2023-05-11T10:56:12.446Z,23.00
2023-05-11T10:59:16.398Z,23.01
2023-05-11T11:01:43.685Z,23.03
2023-05-11T11:04:12.638Z,23.05
2023-05-11T11:06:42.423Z,23.05
2023-05-11T11:09:14.501Z,23.08
2023-05-11T11:11:43.168Z,23.09
2023-05-11T11:14:10.450Z,23.10
2023-05-11T11:16:37.656Z,23.13
2023-05-11T11:19:32.029Z,23.15
2023-05-11T11:22:00.288Z,22.89
2023-05-11T11:24:53.691Z,23.15
2023-05-11T11:27:40.189Z,23.20
2023-05-11T11:30:26.897Z,23.22
2023-05-11T11:32:55.668Z,23.23
2023-05-11T11:35:55.682Z,23.25
2023-05-11T11:38:22.983Z,23.26
2023-05-11T11:40:53.743Z,23.26
2023-05-11T11:43:45.791Z,23.29
2023-05-11T11:46:25.248Z,23.30
2023-05-11T11:48:54.378Z,23.33
2023-05-11T11:51:34.285Z,23.36
2023-05-11T11:54:01.182Z,23.37
2023-05-11T11:56:30.844Z,23.38
2023-05-11T11:59:02.809Z,23.39
2023-05-11T12:01:30.682Z,23.40
2023-05-11T12:04:20.417Z,23.41
2023-05-11T12:06:58.865Z,23.42
2023-05-11T12:09:26.759Z,23.44
2023-05-11T12:14:22.666Z,23.46
2023-05-11T12:17:03.437Z,23.47
2023-05-11T12:19:30.913Z,23.50
2023-05-11T12:21:57.468Z,23.51
2023-05-11T12:24:24.144Z,23.52
2023-05-11T12:26:50.777Z,23.54
2023-05-11T12:29:18.449Z,23.56
2023-05-11T12:31:46.779Z,23.56
2023-05-11T12:34:16.281Z,23.57
2023-05-11T12:36:45.147Z,23.49
2023-05-11T12:39:22.375Z,23.58
2023-05-11T12:41:50.412Z,23.59
2023-05-11T12:44:18.372Z,23.53
2023-05-11T12:46:47.082Z,23.62
2023-05-11T12:52:00.025Z,23.64
2023-05-11T12:54:32.653Z,23.66
2023-05-11T12:57:01.095Z,23.67
2023-05-11T12:59:40.788Z,23.68
2023-05-11T13:02:17.395Z,23.69
2023-05-11T13:04:45.490Z,23.68
2023-05-11T13:07:13.798Z,23.72
2023-05-11T13:09:41.169Z,23.73
2023-05-11T13:12:14.523Z,23.74
2023-05-11T13:14:41.847Z,23.74
2023-05-11T13:17:08.505Z,23.76
2023-05-11T13:19:35.324Z,23.77
2023-05-11T13:22:01.952Z,23.78
2023-05-11T13:24:28.527Z,23.77
2023-05-11T13:26:57.304Z,23.80
2023-05-11T13:29:24.226Z,23.81
2023-05-11T13:31:52.762Z,23.81
2023-05-11T13:34:20.128Z,23.82
2023-05-11T13:36:47.216Z,23.82
2023-05-11T13:39:14.245Z,23.84
2023-05-11T13:41:40.769Z,23.85
2023-05-11T13:44:07.831Z,23.85
2023-05-11T13:46:35.209Z,23.87
2023-05-11T13:49:01.800Z,23.87
2023-05-11T13:51:28.374Z,23.88
2023-05-11T13:53:55.169Z,23.89
2023-05-11T13:56:22.026Z,23.90
2023-05-11T13:58:49.004Z,23.89
2023-05-11T14:01:16.249Z,23.92
2023-05-11T14:03:45.546Z,23.93
2023-05-11T14:06:12.569Z,23.94
2023-05-11T14:08:39.149Z,23.95
2023-05-11T14:11:05.624Z,23.96
2023-05-11T14:13:32.246Z,23.96
2023-05-11T14:15:59.237Z,23.97
2023-05-11T14:18:26.280Z,23.98
2023-05-11T14:20:54.364Z,23.99
2023-05-11T14:23:21.411Z,23.99
2023-05-11T14:25:47.952Z,24.01
2023-05-11T14:28:14.711Z,24.01
2023-05-11T14:30:41.336Z,24.02
2023-05-11T14:33:08.698Z,24.04
2023-05-11T14:35:37.047Z,24.04
2023-05-11T14:38:05.087Z,24.04
2023-05-11T14:40:32.803Z,24.04
2023-05-11T14:42:59.495Z,24.01
2023-05-11T14:45:26.100Z,24.00
2023-05-11T14:47:53.035Z,23.97
2023-05-11T14:50:19.704Z,23.95
2023-05-11T14:52:47.008Z,23.92
2023-05-11T14:55:14.057Z,23.91
2023-05-11T14:57:40.936Z,23.89
2023-05-11T15:00:08.459Z,23.87
2023-05-11T15:02:35.146Z,23.85
2023-05-11T15:05:02.035Z,23.83
2023-05-11T15:07:28.629Z,23.83
2023-05-11T15:09:55.947Z,23.83
2023-05-11T15:12:23.416Z,23.82
2023-05-11T15:14:50.547Z,23.73
2023-05-11T15:17:17.135Z,23.71
2023-05-11T15:19:43.679Z,23.79
2023-05-11T15:22:10.418Z,23.77
2023-05-11T15:24:37.280Z,23.75
2023-05-11T15:27:03.968Z,23.74
2023-05-11T15:29:30.470Z,23.72
2023-05-11T15:31:57.050Z,23.71
2023-05-11T15:34:23.596Z,23.69
2023-05-11T15:36:50.487Z,23.66
2023-05-11T15:39:19.562Z,23.64
2023-05-11T15:41:46.585Z,23.63
2023-05-11T15:44:16.351Z,23.61
2023-05-11T15:46:46.210Z,23.57
2023-05-11T15:49:12.897Z,23.62
2023-05-11T15:51:39.571Z,23.62
2023-05-11T15:54:06.396Z,23.67
2023-05-11T15:56:33.000Z,23.57
2023-05-11T15:58:59.592Z,23.61
2023-05-11T16:01:26.182Z,23.77
2023-05-11T16:03:54.878Z,23.79
2023-05-11T16:06:21.384Z,23.82
2023-05-11T16:08:48.307Z,23.83
2023-05-11T16:11:14.831Z,23.84
2023-05-11T16:13:41.405Z,23.85
2023-05-11T16:16:11.394Z,23.86
2023-05-11T16:18:39.077Z,23.87
2023-05-11T16:21:06.572Z,23.84
2023-05-11T16:23:33.240Z,23.81
2023-05-11T16:26:00.680Z,23.89
2023-05-11T16:28:27.210Z,23.90
2023-05-11T16:30:57.851Z,23.90
2023-05-11T16:33:26.149Z,23.90
2023-05-11T16:35:55.534Z,23.91
2023-05-11T16:38:22.562Z,23.91
2023-05-11T16:40:49.917Z,23.92
2023-05-11T16:43:17.137Z,23.90
2023-05-11T16:45:44.113Z,23.92
2023-05-11T16:48:10.970Z,23.78
2023-05-11T16:50:37.565Z,23.90
2023-05-11T16:53:04.879Z,23.90
2023-05-11T16:55:31.393Z,23.90
2023-05-11T16:57:57.991Z,23.90
2023-05-11T17:00:25.190Z,23.83
2023-05-11T17:02:51.965Z,23.63
2023-05-11T17:05:19.055Z,23.87
2023-05-11T17:07:46.743Z,23.89
2023-05-11T17:10:13.645Z,23.90
2023-05-11T17:12:40.864Z,23.81
2023-05-11T17:15:09.774Z,23.91
2023-05-11T17:17:37.769Z,23.91
2023-05-11T17:20:07.661Z,23.92
2023-05-11T17:22:38.271Z,23.91
2023-05-11T17:25:06.272Z,23.92
2023-05-11T17:27:34.568Z,23.93
2023-05-11T17:30:01.113Z,23.92
2023-05-11T17:32:27.780Z,23.85
2023-05-11T17:34:54.536Z,23.91
2023-05-11T17:37:31.321Z,23.91
2023-05-11T17:40:02.460Z,23.90
2023-05-11T17:42:29.097Z,23.83
2023-05-11T17:44:55.951Z,23.89
2023-05-11T17:49:43.843Z,23.87
2023-05-11T17:52:10.676Z,23.88
2023-05-11T17:54:37.202Z,23.88
2023-05-11T17:57:07.026Z,23.86
2023-05-11T17:59:34.080Z,23.71
2023-05-11T18:02:01.261Z,23.85
2023-05-11T18:04:28.234Z,23.83
2023-05-11T18:06:54.736Z,23.82
2023-05-11T18:09:21.289Z,23.81
2023-05-11T18:11:47.928Z,23.76
2023-05-11T18:14:14.938Z,23.79
2023-05-11T18:16:41.458Z,23.79
2023-05-11T18:19:08.185Z,23.80
2023-05-11T18:21:35.056Z,23.78
2023-05-11T18:24:01.732Z,23.75
2023-05-11T18:26:28.286Z,23.76
2023-05-11T18:28:55.163Z,23.76
2023-05-11T18:31:22.169Z,23.74
2023-05-11T18:33:49.246Z,23.75
2023-05-11T18:36:16.130Z,23.74
2023-05-11T18:38:46.647Z,23.73
2023-05-11T18:41:13.251Z,23.71
2023-05-11T18:43:45.942Z,23.72
2023-05-11T18:46:12.523Z,23.69
2023-05-11T18:48:39.127Z,23.70
2023-05-11T18:51:06.676Z,23.70
2023-05-11T18:53:33.487Z,23.69
2023-05-11T18:56:00.567Z,23.66
2023-05-11T18:58:27.140Z,23.67
2023-05-11T19:00:53.932Z,23.66
2023-05-11T19:03:22.057Z,23.66
2023-05-11T19:05:49.305Z,23.51
2023-05-11T19:08:16.388Z,23.63
2023-05-11T19:10:47.871Z,23.53
2023-05-11T19:13:14.738Z,23.62
2023-05-11T19:15:41.354Z,23.62
2023-05-11T19:18:08.108Z,23.60
2023-05-11T19:20:35.147Z,23.61
2023-05-11T19:23:02.296Z,23.58
2023-05-11T19:25:29.092Z,23.60
2023-05-11T19:27:57.222Z,23.59
2023-05-11T19:30:24.667Z,23.59
2023-05-11T19:32:51.372Z,23.58
2023-05-11T19:35:18.948Z,23.56
2023-05-11T19:37:48.845Z,23.57
2023-05-11T19:42:46.137Z,23.56
2023-05-11T19:45:14.907Z,23.54
2023-05-11T19:47:41.680Z,23.53
2023-05-11T19:50:08.927Z,23.54
2023-05-11T19:52:36.655Z,23.53
2023-05-11T19:55:06.722Z,23.53
2023-05-11T19:57:37.170Z,23.52
2023-05-11T20:00:07.630Z,23.48
2023-05-11T20:02:35.775Z,23.49
2023-05-11T20:05:03.843Z,23.47
2023-05-11T20:07:30.467Z,23.39
2023-05-11T20:09:57.967Z,23.49
2023-05-11T20:12:24.481Z,23.47
2023-05-11T20:14:52.589Z,23.38
2023-05-11T20:17:19.121Z,23.43
2023-05-11T20:19:45.674Z,23.44
2023-05-11T20:22:12.230Z,23.43
2023-05-11T20:24:38.830Z,23.42
2023-05-11T20:27:09.422Z,23.43
2023-05-11T20:29:36.465Z,23.36
2023-05-11T20:32:03.361Z,23.42
2023-05-11T20:34:30.129Z,23.42
2023-05-11T20:36:56.776Z,23.41
2023-05-11T20:39:23.367Z,23.26
2023-05-11T20:41:52.740Z,23.37
2023-05-11T20:44:19.430Z,23.38
2023-05-11T20:46:47.210Z,23.36
2023-05-11T20:49:20.140Z,23.35
2023-05-11T20:51:54.348Z,23.31
2023-05-11T20:54:22.502Z,23.34
2023-05-11T20:56:49.917Z,23.30
2023-05-11T21:01:46.791Z,23.29
2023-05-11T21:04:13.392Z,23.30
2023-05-11T21:06:40.359Z,23.28
2023-05-11T21:09:06.909Z,23.29
2023-05-11T21:11:33.524Z,23.28
2023-05-11T21:14:00.158Z,23.27
2023-05-11T21:16:26.753Z,23.26
2023-05-11T21:18:54.107Z,23.17
2023-05-11T21:21:20.762Z,23.27
2023-05-11T21:23:47.340Z,23.26
2023-05-11T21:26:17.188Z,23.21
2023-05-11T21:28:43.701Z,23.25
2023-05-11T21:31:10.356Z,23.24
2023-05-11T21:33:37.447Z,23.20
2023-05-11T21:36:05.808Z,23.23
2023-05-11T21:38:32.548Z,23.22
2023-05-11T21:40:59.085Z,23.22
2023-05-11T21:43:25.683Z,23.19
2023-05-11T21:45:52.440Z,23.21
2023-05-11T21:48:19.474Z,23.22
2023-05-11T21:50:52.250Z,23.21
2023-05-11T21:53:18.969Z,23.20
2023-05-11T21:55:45.500Z,22.90
2023-05-11T21:58:12.473Z,23.20
2023-05-11T22:00:39.393Z,23.22
2023-05-11T22:03:06.558Z,23.17
2023-05-11T22:05:33.181Z,23.20
2023-05-11T22:08:13.343Z,23.16
2023-05-11T22:10:42.906Z,23.19
2023-05-11T22:13:09.526Z,23.18
2023-05-11T22:15:36.240Z,23.19
2023-05-11T22:18:06.017Z,23.20
2023-05-11T22:20:33.156Z,23.18
2023-05-11T22:22:59.796Z,23.09
2023-05-11T22:25:28.427Z,23.07
2023-05-11T22:27:54.981Z,23.18
2023-05-11T22:30:23.743Z,23.17
2023-05-11T22:32:50.525Z,23.16
2023-05-11T22:35:17.182Z,23.15
2023-05-11T22:37:43.801Z,23.14
2023-05-11T22:40:10.969Z,23.14
2023-05-11T22:42:37.949Z,23.14
2023-05-11T22:45:05.063Z,23.08
2023-05-11T22:47:31.792Z,23.10
2023-05-11T22:49:58.921Z,23.12
2023-05-11T22:52:25.419Z,23.13
2023-05-11T22:54:57.786Z,23.12
2023-05-11T22:57:26.180Z,23.10
2023-05-11T22:59:52.657Z,23.11
2023-05-11T23:02:19.376Z,23.10
2023-05-11T23:04:53.528Z,23.08
2023-05-11T23:07:20.098Z,23.01
2023-05-11T23:09:47.009Z,23.10
2023-05-11T23:12:13.584Z,23.10
2023-05-11T23:14:40.193Z,23.05
2023-05-11T23:17:06.883Z,23.08
2023-05-11T23:19:33.682Z,23.00
2023-05-11T23:22:00.598Z,23.07
2023-05-11T23:24:28.784Z,23.07
2023-05-11T23:26:55.444Z,23.05
2023-05-11T23:29:22.067Z,23.00
2023-05-11T23:31:48.947Z,23.05
2023-05-11T23:34:15.749Z,23.05
2023-05-11T23:36:42.941Z,23.04
2023-05-11T23:39:09.617Z,23.03
2023-05-11T23:41:36.348Z,23.04
2023-05-11T23:44:03.301Z,23.04
2023-05-11T23:46:29.992Z,23.03
2023-05-11T23:48:56.494Z,23.03
2023-05-11T23:51:23.206Z,23.02
2023-05-11T23:53:49.769Z,23.03
2023-05-11T23:56:16.385Z,22.94
2023-05-11T23:58:45.553Z,23.00
